Time;durP1;ratioP1;P1;durP2;ratioP2;P2;SDS_P1;SDS_P2;PMS_P1;PMS_P2;Temp;Humidity;BMP_temperature;BMP_pressure;BME280_temperature;BME280_humidity;BME280_pressure;Samples;Min_cycle;Max_cycle;Signal;HPM_P1;HPM_P2
2022/07/26 00:02:11;;;;;;;9.90;6.07;;;17.90;99.10;;;;;;5055144;28;20041;-56
2022/07/26 00:04:37;;;;;;;9.52;5.38;;;17.80;99.30;;;;;;5055278;28;20041;-56
2022/07/26 00:07:03;;;;;;;10.57;5.68;;;17.90;99.00;;;;;;5055170;28;20021;-56
2022/07/26 00:09:29;;;;;;;7.18;5.38;;;17.90;98.90;;;;;;5055227;28;20506;-56
2022/07/26 00:11:55;;;;;;;10.55;5.60;;;17.90;99.20;;;;;;5054958;28;20056;-56
2022/07/26 00:14:21;;;;;;;6.85;5.60;;;17.80;99.30;;;;;;5055298;28;20029;-56
2022/07/26 00:16:47;;;;;;;9.77;5.32;;;17.80;99.70;;;;;;5055322;28;20401;-56
2022/07/26 00:19:13;;;;;;;15.05;6.97;;;18.00;99.70;;;;;;5055031;28;20040;-56
2022/07/26 00:21:39;;;;;;;11.90;6.53;;;17.90;99.90;;;;;;5055060;28;20025;-56
2022/07/26 00:24:06;;;;;;;9.25;5.65;;;17.80;99.90;;;;;;5054885;28;20052;-56
2022/07/26 00:26:32;;;;;;;9.43;5.22;;;17.70;99.90;;;;;;5054899;28;20032;-56
2022/07/26 00:28:58;;;;;;;9.50;5.70;;;17.70;99.90;;;;;;5054780;28;20040;-56
2022/07/26 00:31:25;;;;;;;7.72;5.45;;;17.70;99.90;;;;;;5054872;28;20033;-56
2022/07/26 00:33:50;;;;;;;8.52;5.30;;;17.50;99.90;;;;;;5054816;28;20071;-56
2022/07/26 00:36:16;;;;;;;6.95;5.32;;;17.50;99.90;;;;;;5054930;28;20032;-56
2022/07/26 00:38:42;;;;;;;7.80;5.30;;;17.40;99.90;;;;;;5054534;28;20040;-56
2022/07/26 00:41:08;;;;;;;7.38;5.32;;;17.30;99.90;;;;;;5054588;28;20056;-56
2022/07/26 00:43:35;;;;;;;11.48;5.18;;;17.30;99.90;;;;;;5054640;28;20035;-56
2022/07/26 00:46:00;;;;;;;7.25;4.97;;;17.30;99.90;;;;;;5054542;28;20119;-56
2022/07/26 00:48:26;;;;;;;7.68;5.38;;;17.30;99.90;;;;;;5054051;28;20171;-56
2022/07/26 00:50:54;;;;;;;6.72;5.50;;;17.40;99.90;;;;;;5054739;28;20027;-56
2022/07/26 00:53:22;;;;;;;11.75;6.18;;;17.30;99.90;;;;;;5054725;28;20135;-56
2022/07/26 00:55:49;;;;;;;8.93;5.30;;;17.30;99.90;;;;;;5054735;28;20417;-56
2022/07/26 00:58:16;;;;;;;8.02;5.45;;;17.20;99.90;;;;;;5054369;28;20045;-56
2022/07/26 01:00:42;;;;;;;10.15;5.32;;;17.40;99.90;;;;;;5054372;28;20053;-56
2022/07/26 01:03:08;;;;;;;8.73;5.70;;;17.30;99.90;;;;;;5054212;28;20052;-56
2022/07/26 01:05:34;;;;;;;8.63;5.28;;;17.30;99.90;;;;;;5054379;28;20521;-56
2022/07/26 01:08:01;;;;;;;7.53;4.85;;;17.30;99.90;;;;;;5054359;28;20057;-56
2022/07/26 01:10:27;;;;;;;7.95;5.28;;;17.20;99.90;;;;;;5054245;28;20021;-56
2022/07/26 01:12:53;;;;;;;7.78;5.43;;;17.20;99.90;;;;;;5054319;28;20093;-56
2022/07/26 01:15:19;;;;;;;6.93;5.22;;;17.10;99.90;;;;;;5054284;28;20111;-56
2022/07/26 01:17:46;;;;;;;9.35;5.13;;;17.00;99.90;;;;;;5054066;28;20029;-56
2022/07/26 01:20:13;;;;;;;8.23;5.70;;;17.00;99.90;;;;;;5054303;28;20036;-56
2022/07/26 01:22:39;;;;;;;11.07;5.50;;;17.00;99.90;;;;;;5054158;28;20402;-56
2022/07/26 01:25:06;;;;;;;8.90;5.45;;;17.00;99.90;;;;;;5054247;28;20036;-56
2022/07/26 01:27:37;;;;;;;6.65;4.88;;;16.80;99.90;;;;;;5054466;28;20025;-56
2022/07/26 01:30:06;;;;;;;7.25;4.97;;;17.00;99.90;;;;;;5053980;28;20025;-56
2022/07/26 01:32:32;;;;;;;10.35;5.63;;;17.00;99.90;;;;;;5054128;28;20458;-56
2022/07/26 01:34:58;;;;;;;11.57;6.13;;;17.00;99.90;;;;;;5054049;28;20052;-56
2022/07/26 01:37:24;;;;;;;8.43;5.07;;;16.80;99.90;;;;;;5053916;28;20033;-56
2022/07/26 01:39:50;;;;;;;5.93;5.15;;;16.80;99.90;;;;;;5053985;28;20375;-56
2022/07/26 01:42:16;;;;;;;11.10;5.50;;;16.80;99.90;;;;;;5054092;28;20083;-56
2022/07/26 01:44:41;;;;;;;7.25;4.85;;;16.70;99.90;;;;;;5053901;28;20025;-56
2022/07/26 01:47:07;;;;;;;6.78;5.07;;;16.60;99.90;;;;;;5053966;28;20032;-56
2022/07/26 01:49:33;;;;;;;8.93;5.60;;;16.70;99.90;;;;;;5054002;28;20124;-56
2022/07/26 01:51:59;;;;;;;8.18;5.57;;;16.70;99.90;;;;;;5053870;28;20136;-56
2022/07/26 01:54:25;;;;;;;7.60;5.38;;;16.70;99.90;;;;;;5053934;28;20078;-56
2022/07/26 01:56:51;;;;;;;8.57;5.28;;;16.70;99.90;;;;;;5054147;28;20052;-56
2022/07/26 01:59:17;;;;;;;8.57;5.05;;;16.60;99.90;;;;;;5054893;28;20531;-56
2022/07/26 02:01:43;;;;;;;8.98;5.90;;;16.60;99.90;;;;;;5057734;28;20089;-56
2022/07/26 02:04:57;;;;;;;9.20;5.40;;;16.70;99.90;;;;;;5057395;28;20409;-56
2022/07/26 02:06:55;;;;;;;7.20;5.50;;;16.70;99.90;;;;;;5057327;28;20104;-56
2022/07/26 02:09:21;;;;;;;8.70;5.18;;;16.70;99.90;;;;;;5057509;28;20120;-56
2022/07/26 02:11:48;;;;;;;9.70;5.70;;;16.60;99.90;;;;;;5057853;28;20017;-56
2022/07/26 02:14:13;;;;;;;7.68;5.28;;;16.60;99.90;;;;;;5057454;28;20462;-56
2022/07/26 02:16:39;;;;;;;10.05;6.03;;;16.60;99.90;;;;;;5057393;28;20124;-56
2022/07/26 02:19:05;;;;;;;9.73;5.38;;;16.60;99.90;;;;;;5057450;28;20032;-55
2022/07/26 02:21:31;;;;;;;8.68;6.57;;;16.60;99.90;;;;;;5057408;28;20031;-56
2022/07/26 02:23:57;;;;;;;8.63;5.93;;;16.60;99.90;;;;;;5057248;28;20037;-56
2022/07/26 02:26:23;;;;;;;9.95;5.95;;;16.50;99.90;;;;;;5057166;28;20035;-56
2022/07/26 02:28:49;;;;;;;8.48;5.75;;;16.50;99.90;;;;;;5057072;28;20037;-56
2022/07/26 02:31:15;;;;;;;9.75;5.78;;;16.60;99.90;;;;;;5057155;28;20074;-56
2022/07/26 02:33:41;;;;;;;10.00;5.55;;;16.50;99.90;;;;;;5056997;28;20025;-56
2022/07/26 02:36:08;;;;;;;8.48;5.60;;;16.50;99.90;;;;;;5057024;28;20379;-56
2022/07/26 02:38:33;;;;;;;9.00;4.88;;;16.50;99.90;;;;;;5056885;28;20474;-56
2022/07/26 02:40:59;;;;;;;7.68;5.80;;;16.50;99.90;;;;;;5039107;28;20133;-56
2022/07/26 02:43:25;;;;;;;9.50;5.60;;;16.50;99.90;;;;;;5039034;28;20036;-56
2022/07/26 02:45:51;;;;;;;7.28;5.15;;;16.60;99.90;;;;;;5039145;28;20156;-56
2022/07/26 02:48:17;;;;;;;9.82;6.38;;;16.50;99.90;;;;;;5056702;28;20442;-56
2022/07/26 02:50:43;;;;;;;6.22;5.10;;;16.40;99.90;;;;;;5056739;28;20025;-56
2022/07/26 02:53:09;;;;;;;9.15;6.15;;;16.40;99.90;;;;;;5056798;28;20033;-56
2022/07/26 02:55:35;;;;;;;8.93;6.10;;;16.40;99.90;;;;;;5056645;28;20081;-56
2022/07/26 02:58:01;;;;;;;8.43;5.85;;;16.40;99.90;;;;;;5056581;28;20028;-56
2022/07/26 03:00:28;;;;;;;11.05;5.93;;;16.30;99.90;;;;;;5056548;28;20033;-56
2022/07/26 03:02:54;;;;;;;8.85;6.32;;;16.40;99.90;;;;;;5056546;28;20123;-56
2022/07/26 03:05:20;;;;;;;9.07;5.65;;;16.40;99.90;;;;;;5056676;28;20129;-56
2022/07/26 03:07:47;;;;;;;10.75;6.30;;;16.30;99.90;;;;;;5056375;28;20056;-56
2022/07/26 03:10:14;;;;;;;10.27;5.90;;;16.30;99.90;;;;;;5055828;28;20025;-56
2022/07/26 03:12:40;;;;;;;10.02;5.70;;;16.30;99.90;;;;;;5056345;28;20028;-56
2022/07/26 03:15:07;;;;;;;7.30;5.20;;;16.20;99.90;;;;;;5056267;28;20025;-56
2022/07/26 03:17:33;;;;;;;7.18;5.00;;;16.20;99.90;;;;;;5056194;28;20025;-55
2022/07/26 03:20:01;;;;;;;7.28;5.50;;;16.20;99.90;;;;;;5056222;28;20029;-56
2022/07/26 03:22:27;;;;;;;8.18;5.35;;;16.30;99.90;;;;;;5056164;28;20044;-56
2022/07/26 03:24:52;;;;;;;6.53;5.32;;;16.20;99.90;;;;;;5056119;28;20017;-56
2022/07/26 03:27:18;;;;;;;10.10;5.60;;;16.20;99.90;;;;;;5056086;28;20025;-56
2022/07/26 03:29:44;;;;;;;7.43;5.70;;;16.20;99.90;;;;;;5055941;28;20037;-56
2022/07/26 03:32:10;;;;;;;8.85;5.68;;;16.10;99.90;;;;;;5055954;28;20029;-56
2022/07/26 03:34:36;;;;;;;7.28;5.45;;;16.10;99.90;;;;;;5038246;28;20498;-56
2022/07/26 03:37:03;;;;;;;8.45;5.55;;;16.10;99.90;;;;;;5038225;28;20029;-56
2022/07/26 03:39:29;;;;;;;5.82;5.00;;;16.20;99.90;;;;;;5055606;28;20024;-56
2022/07/26 03:41:54;;;;;;;13.52;5.38;;;16.30;99.90;;;;;;5055853;28;20586;-56
2022/07/26 03:44:20;;;;;;;10.85;6.18;;;16.20;99.90;;;;;;5055788;28;20295;-55
2022/07/26 03:46:46;;;;;;;9.43;5.85;;;16.10;99.90;;;;;;5055624;28;20029;-56
2022/07/26 03:49:12;;;;;;;12.13;5.80;;;16.10;99.90;;;;;;5055704;28;20450;-55
2022/07/26 03:51:38;;;;;;;10.80;6.97;;;16.10;99.90;;;;;;5055566;28;20040;-56
2022/07/26 03:54:04;;;;;;;14.52;7.15;;;16.30;99.90;;;;;;5055459;28;20025;-56
2022/07/26 03:56:30;;;;;;;9.38;5.90;;;16.40;99.90;;;;;;5055782;28;20032;-56
2022/07/26 03:59:03;;;;;;;12.00;5.72;;;16.30;99.90;;;;;;5055194;28;20068;-56
2022/07/26 04:01:30;;;;;;;7.93;5.45;;;16.30;99.90;;;;;;5055348;28;20029;-56
2022/07/26 04:03:56;;;;;;;8.85;5.57;;;16.30;99.90;;;;;;5055462;28;20049;-56
2022/07/26 04:06:21;;;;;;;8.40;5.95;;;16.40;99.90;;;;;;5055147;28;20120;-56
2022/07/26 04:08:48;;;;;;;9.30;5.75;;;16.40;99.90;;;;;;5055616;28;20056;-56
2022/07/26 04:11:14;;;;;;;10.23;6.70;;;16.40;99.90;;;;;;5037534;28;20029;-56
2022/07/26 04:13:40;;;;;;;11.35;6.55;;;16.40;99.90;;;;;;5055124;28;20112;-56
2022/07/26 04:16:06;;;;;;;8.82;5.85;;;16.40;99.90;;;;;;5055142;28;20056;-56
2022/07/26 04:18:32;;;;;;;9.70;6.53;;;16.50;99.90;;;;;;5054993;28;20029;-56
2022/07/26 04:20:58;;;;;;;15.52;6.80;;;16.60;99.90;;;;;;5054648;28;20605;-56
2022/07/26 04:23:24;;;;;;;30.75;8.02;;;16.60;99.90;;;;;;5054412;28;20029;-56
2022/07/26 04:25:50;;;;;;;23.92;8.25;;;16.60;99.90;;;;;;5054962;28;20082;-56
2022/07/26 04:28:16;;;;;;;16.08;7.90;;;16.90;99.90;;;;;;5054774;28;20029;-56
2022/07/26 04:30:42;;;;;;;18.00;7.57;;;17.00;99.90;;;;;;5054766;28;20499;-56
2022/07/26 04:33:08;;;;;;;13.88;7.45;;;17.20;99.90;;;;;;5054919;28;20481;-56
2022/07/26 04:35:34;;;;;;;10.77;6.40;;;17.10;99.90;;;;;;5054776;28;20029;-56
2022/07/26 04:38:01;;;;;;;20.33;8.75;;;17.20;99.90;;;;;;5054608;28;20029;-56
2022/07/26 04:40:32;;;;;;;18.52;8.13;;;17.20;99.90;;;;;;5054524;28;20052;-56
2022/07/26 04:42:59;;;;;;;27.33;9.60;;;17.30;99.90;;;;;;5054624;28;20037;-56
2022/07/26 04:45:25;;;;;;;18.80;7.68;;;17.50;99.90;;;;;;5054629;28;20402;-56
2022/07/26 04:47:51;;;;;;;18.42;7.95;;;17.50;99.90;;;;;;5054733;28;20025;-56
2022/07/26 04:50:19;;;;;;;14.95;6.45;;;17.50;99.90;;;;;;5054631;28;20360;-56
2022/07/26 04:52:46;;;;;;;19.90;7.95;;;17.60;99.90;;;;;;5054463;28;20410;-56
2022/07/26 04:55:12;;;;;;;18.33;7.55;;;17.60;99.90;;;;;;5054339;28;20060;-56
2022/07/26 04:57:38;;;;;;;13.60;6.88;;;17.70;99.90;;;;;;5054344;28;20025;-56
2022/07/26 05:00:06;;;;;;;16.63;7.03;;;17.90;99.90;;;;;;5054369;28;20025;-56
2022/07/26 05:02:32;;;;;;;11.98;6.88;;;17.90;99.90;;;;;;5054531;28;20454;-56
2022/07/26 05:04:58;;;;;;;21.92;7.50;;;18.00;99.90;;;;;;5054030;28;20092;-56
2022/07/26 05:07:24;;;;;;;22.15;7.80;;;18.20;99.60;;;;;;5054518;28;20066;-56
2022/07/26 05:09:50;;;;;;;25.77;8.90;;;18.40;99.00;;;;;;5054162;28;20124;-56
2022/07/26 05:12:16;;;;;;;20.08;8.27;;;18.50;97.80;;;;;;5054298;28;20032;-56
2022/07/26 05:14:43;;;;;;;16.33;8.05;;;18.60;97.50;;;;;;5053703;28;20025;-56
2022/07/26 05:17:09;;;;;;;22.15;8.50;;;18.70;97.10;;;;;;5054033;28;20024;-56
2022/07/26 05:19:36;;;;;;;34.45;8.95;;;18.90;96.50;;;;;;5053480;28;20056;-56
2022/07/26 05:22:02;;;;;;;36.17;11.15;;;19.10;95.40;;;;;;5054067;28;20068;-56
2022/07/26 05:24:28;;;;;;;26.98;9.18;;;19.20;95.00;;;;;;5053703;28;20045;-56
2022/07/26 05:26:53;;;;;;;18.35;7.57;;;19.30;94.60;;;;;;5053981;28;20386;-56
2022/07/26 05:29:19;;;;;;;23.15;7.47;;;19.50;94.30;;;;;;5054085;28;20037;-56
2022/07/26 05:31:45;;;;;;;18.70;8.57;;;19.70;93.80;;;;;;5053966;28;20073;-56
2022/07/26 05:34:12;;;;;;;32.08;9.07;;;19.80;92.50;;;;;;5056997;28;20292;-56
2022/07/26 05:36:38;;;;;;;23.92;8.98;;;19.80;92.20;;;;;;5046015;28;20025;-56
2022/07/26 05:39:04;;;;;;;26.83;10.35;;;20.00;90.50;;;;;;5047929;28;20368;-56
2022/07/26 05:41:30;;;;;;;25.83;10.05;;;20.10;88.50;;;;;;5053314;28;20033;-56
2022/07/26 05:43:56;;;;;;;33.13;11.20;;;20.20;87.70;;;;;;5057797;28;20032;-56
2022/07/26 05:46:22;;;;;;;54.22;14.50;;;20.40;87.30;;;;;;5044699;28;20029;-56
2022/07/26 05:48:47;;;;;;;37.20;12.27;;;20.40;87.20;;;;;;5056157;28;20021;-56
2022/07/26 05:51:13;;;;;;;31.70;12.40;;;20.50;86.90;;;;;;5057755;28;20040;-56
2022/07/26 05:53:39;;;;;;;26.65;11.32;;;20.60;86.60;;;;;;5057229;28;20029;-56
2022/07/26 05:56:06;;;;;;;34.17;11.70;;;20.70;86.10;;;;;;5057437;28;20029;-56
2022/07/26 05:58:32;;;;;;;32.35;12.02;;;20.80;85.60;;;;;;5052860;28;20028;-56
2022/07/26 06:00:57;;;;;;;32.88;11.38;;;20.90;84.70;;;;;;5056798;28;20088;-56
2022/07/26 06:03:24;;;;;;;35.28;12.75;;;21.10;82.90;;;;;;5057171;28;20056;-56
2022/07/26 06:05:56;;;;;;;25.10;12.50;;;21.20;81.90;;;;;;5053001;28;20021;-56
2022/07/26 06:08:23;;;;;;;24.88;11.60;;;21.40;81.60;;;;;;5047566;28;20041;-56
2022/07/26 06:10:49;;;;;;;18.98;9.75;;;21.50;80.60;;;;;;5054638;28;20017;-56
2022/07/26 06:13:15;;;;;;;30.17;11.55;;;21.70;79.10;;;;;;5056319;28;20103;-56
2022/07/26 06:15:42;;;;;;;40.13;11.80;;;21.70;79.10;;;;;;5053789;28;20368;-56
2022/07/26 06:18:08;;;;;;;28.48;11.05;;;21.90;76.70;;;;;;5049234;28;20475;-56
2022/07/26 06:20:38;;;;;;;31.48;10.65;;;22.10;74.70;;;;;;5056570;28;20508;-56
2022/07/26 06:23:04;;;;;;;34.78;11.45;;;22.20;73.80;;;;;;5057147;28;20032;-56
2022/07/26 06:25:30;;;;;;;29.85;11.15;;;22.30;72.50;;;;;;5056173;28;20036;-56
2022/07/26 06:27:56;;;;;;;38.95;12.32;;;22.50;70.20;;;;;;5055568;28;20489;-56
2022/07/26 06:30:22;;;;;;;25.15;11.35;;;22.70;70.50;;;;;;5054927;28;20027;-56
2022/07/26 06:32:48;;;;;;;28.90;9.10;;;22.90;68.90;;;;;;5056106;28;20021;-56
2022/07/26 06:35:14;;;;;;;29.77;10.48;;;23.10;68.60;;;;;;5054417;28;20045;-57
2022/07/26 06:37:44;;;;;;;27.58;9.88;;;23.30;68.10;;;;;;5056777;28;20116;-56
2022/07/26 06:40:11;;;;;;;45.20;11.60;;;23.50;66.80;;;;;;5056599;28;20068;-56
2022/07/26 06:42:38;;;;;;;25.88;11.48;;;23.60;63.90;;;;;;5055692;28;20501;-56
2022/07/26 06:45:05;;;;;;;27.45;8.93;;;23.80;63.20;;;;;;5055150;28;20109;-57
2022/07/26 06:47:31;;;;;;;19.20;7.93;;;23.90;61.80;;;;;;5055996;28;20450;-57
2022/07/26 06:49:57;;;;;;;15.50;7.07;;;24.10;62.50;;;;;;5056596;28;20072;-57
2022/07/26 06:52:23;;;;;;;12.57;6.53;;;24.40;61.00;;;;;;5056486;28;20013;-56
2022/07/26 06:54:49;;;;;;;50.60;11.10;;;24.60;59.80;;;;;;5056462;28;20028;-57
2022/07/26 06:57:15;;;;;;;23.83;7.53;;;24.80;59.10;;;;;;5055971;28;20467;-57
2022/07/26 06:59:43;;;;;;;21.00;7.55;;;25.10;58.60;;;;;;5051509;28;20025;-57
2022/07/26 07:02:09;;;;;;;20.52;7.35;;;25.30;57.90;;;;;;5051783;28;20144;-57
2022/07/26 07:04:36;;;;;;;27.92;8.30;;;25.60;57.10;;;;;;5067412;28;20068;-57
2022/07/26 07:07:04;;;;;;;19.15;7.28;;;25.80;56.10;;;;;;5056863;28;20548;-57
2022/07/26 07:09:31;;;;;;;19.65;8.02;;;26.10;56.00;;;;;;5055404;28;20025;-57
2022/07/26 07:11:57;;;;;;;19.63;7.50;;;26.40;55.00;;;;;;5056263;28;20029;-57
2022/07/26 07:14:23;;;;;;;24.25;7.55;;;26.70;54.30;;;;;;5056140;28;20079;-57
2022/07/26 07:16:49;;;;;;;31.30;9.50;;;27.10;54.10;;;;;;5056008;28;20031;-57
2022/07/26 07:19:15;;;;;;;25.00;7.97;;;27.40;52.60;;;;;;5055546;28;20037;-57
2022/07/26 07:21:41;;;;;;;65.82;12.32;;;27.50;51.40;;;;;;5053509;28;20486;-57
2022/07/26 07:24:07;;;;;;;24.63;6.40;;;27.90;51.40;;;;;;5052382;28;20041;-57
2022/07/26 07:26:33;;;;;;;15.63;6.82;;;28.30;49.60;;;;;;5055291;28;20025;-57
2022/07/26 07:29:02;;;;;;;18.92;7.75;;;28.40;49.20;;;;;;5047271;28;20063;-57
2022/07/26 07:31:28;;;;;;;25.23;7.88;;;28.70;47.70;;;;;;5051504;28;20039;-57
2022/07/26 07:33:54;;;;;;;19.45;7.07;;;28.90;48.10;;;;;;5048383;28;20488;-57
2022/07/26 07:36:20;;;;;;;26.00;8.10;;;29.30;46.60;;;;;;5054527;28;20104;-57
2022/07/26 07:38:47;;;;;;;25.58;7.35;;;29.70;44.90;;;;;;5048981;28;20129;-57
2022/07/26 07:41:13;;;;;;;19.67;6.95;;;30.10;43.50;;;;;;5054382;28;20441;-57
2022/07/26 07:43:39;;;;;;;16.63;7.03;;;30.30;42.60;;;;;;5049731;28;20033;-57
2022/07/26 07:46:08;;;;;;;31.38;9.05;;;30.70;42.70;;;;;;5051013;28;20024;-57
2022/07/26 07:48:36;;;;;;;38.33;8.00;;;30.90;40.90;;;;;;5054297;28;20052;-57
2022/07/26 07:51:02;;;;;;;18.65;6.47;;;31.10;39.60;;;;;;5054753;28;20021;-57
2022/07/26 07:53:28;;;;;;;16.38;7.38;;;31.60;39.20;;;;;;5054953;28;20083;-57
2022/07/26 07:55:54;;;;;;;15.73;6.70;;;32.00;41.90;;;;;;5052740;28;20112;-57
2022/07/26 07:58:20;;;;;;;16.90;6.38;;;32.30;40.80;;;;;;5047075;28;20094;-57
2022/07/26 08:00:46;;;;;;;16.67;6.75;;;32.30;40.80;;;;;;5046694;28;20126;-57
2022/07/26 08:03:12;;;;;;;25.80;6.85;;;32.70;40.20;;;;;;5044594;28;20065;-57
2022/07/26 08:05:38;;;;;;;12.07;6.85;;;33.00;39.30;;;;;;5038290;28;20691;-57
2022/07/26 08:08:04;;;;;;;25.17;9.65;;;33.30;39.40;;;;;;5048533;28;20045;-58
2022/07/26 08:10:31;;;;;;;23.95;7.95;;;32.60;39.80;;;;;;5043318;28;20112;-58
2022/07/26 08:12:56;;;;;;;25.77;9.48;;;32.70;39.30;;;;;;5041614;28;20037;-58
2022/07/26 08:15:22;;;;;;;19.35;8.30;;;33.30;39.40;;;;;;5054434;28;20062;-58
2022/07/26 08:17:49;;;;;;;26.45;9.02;;;33.80;38.30;;;;;;5051771;28;20024;-58
2022/07/26 08:20:15;;;;;;;21.50;10.82;;;34.00;36.60;;;;;;5050129;28;20025;-58
2022/07/26 08:22:41;;;;;;;20.63;8.73;;;34.20;35.20;;;;;;5049708;28;20077;-58
2022/07/26 08:25:08;;;;;;;25.15;9.13;;;34.70;34.30;;;;;;5053624;28;20025;-58
2022/07/26 08:27:34;;;;;;;18.80;8.65;;;35.00;33.00;;;;;;5054351;28;20043;-58
2022/07/26 08:30:00;;;;;;;19.92;8.05;;;35.00;33.60;;;;;;5046164;28;20920;-58
2022/07/26 08:32:26;;;;;;;17.33;7.80;;;35.10;34.10;;;;;;5046130;28;20036;-57
2022/07/26 08:34:51;;;;;;;17.00;7.70;;;35.10;33.50;;;;;;5048142;28;20528;-58
2022/07/26 08:37:18;;;;;;;24.83;7.85;;;35.60;33.40;;;;;;5035725;28;20471;-58
2022/07/26 08:39:46;;;;;;;13.82;7.57;;;36.00;33.40;;;;;;5034575;28;20037;-58
2022/07/26 08:42:21;;;;;;;18.88;8.75;;;36.30;32.50;;;;;;5034279;28;20035;-58
2022/07/26 08:44:50;;;;;;;35.95;9.15;;;36.50;30.80;;;;;;5034961;28;20033;-58
2022/07/26 08:47:19;;;;;;;15.82;7.38;;;36.60;30.60;;;;;;5046368;28;20091;-58
2022/07/26 08:49:47;;;;;;;20.02;7.38;;;36.70;31.50;;;;;;5040023;28;20025;-58
2022/07/26 08:52:14;;;;;;;17.80;7.53;;;37.10;29.60;;;;;;5041527;28;20025;-58
2022/07/26 08:54:50;;;;;;;20.15;8.07;;;37.20;30.10;;;;;;5042866;28;20043;-58
2022/07/26 08:57:16;;;;;;;16.50;8.10;;;37.40;29.60;;;;;;5046612;28;20028;-58
2022/07/26 08:59:43;;;;;;;17.48;8.05;;;37.00;28.80;;;;;;5028400;28;20423;-58
2022/07/26 09:02:12;;;;;;;23.02;8.27;;;37.20;29.00;;;;;;5041192;28;20037;-58
2022/07/26 09:04:40;;;;;;;13.55;7.38;;;37.70;29.80;;;;;;5044662;28;20045;-58
2022/07/26 09:07:14;;;;;;;17.10;7.13;;;38.00;28.30;;;;;;5047193;28;20055;-58
2022/07/26 09:10:01;;;;;;;9.30;6.03;;;38.30;26.30;;;;;;5033933;28;20034;-58
2022/07/26 09:12:29;;;;;;;19.98;7.88;;;38.10;26.50;;;;;;5042648;28;20076;-58
2022/07/26 09:14:55;;;;;;;24.20;8.82;;;38.10;26.00;;;;;;5047673;28;20021;-58
2022/07/26 09:17:23;;;;;;;16.15;7.57;;;37.90;26.90;;;;;;5041670;28;20021;-58
2022/07/26 09:20:10;;;;;;;22.33;8.32;;;38.10;27.70;;;;;;5053999;28;20159;-58
2022/07/26 09:22:58;;;;;;;39.72;11.40;;;37.40;26.60;;;;;;5054023;28;20024;-58
2022/07/26 09:25:25;;;;;;;26.77;9.13;;;37.80;27.80;;;;;;5054125;28;20093;-58
2022/07/26 09:27:51;;;;;;;27.45;9.48;;;38.20;28.80;;;;;;5053590;28;20108;-58
2022/07/26 09:30:18;;;;;;;26.85;9.45;;;38.50;26.80;;;;;;5053786;28;20029;-58
2022/07/26 09:33:00;;;;;;;28.40;10.15;;;38.90;26.30;;;;;;5053264;28;20021;-58
2022/07/26 09:35:28;;;;;;;20.20;8.05;;;39.10;27.20;;;;;;5048926;28;20021;-58
2022/07/26 09:37:54;;;;;;;16.25;7.97;;;39.40;26.20;;;;;;5043721;28;20460;-58
2022/07/26 09:40:20;;;;;;;29.30;10.10;;;38.80;26.20;;;;;;5053550;28;20037;-58
2022/07/26 09:42:58;;;;;;;17.40;7.40;;;39.00;26.30;;;;;;5053073;28;20374;-58
2022/07/26 09:45:26;;;;;;;18.10;7.20;;;39.40;25.70;;;;;;5051169;28;20050;-58
2022/07/26 09:47:52;;;;;;;26.17;8.18;;;39.50;25.30;;;;;;5053256;28;20111;-58
2022/07/26 09:50:24;;;;;;;14.23;6.80;;;39.30;25.70;;;;;;5053123;28;20028;-58
2022/07/26 09:53:10;;;;;;;11.55;5.95;;;39.80;26.10;;;;;;5053076;28;20025;-58
2022/07/26 09:55:48;;;;;;;13.93;6.15;;;40.40;25.10;;;;;;5052355;28;20018;-58
2022/07/26 09:58:15;;;;;;;24.20;6.55;;;40.00;24.50;;;;;;5051527;28;20155;-58
2022/07/26 10:00:42;;;;;;;20.80;7.53;;;40.30;25.20;;;;;;5052850;28;20028;-58
2022/07/26 10:03:08;;;;;;;7.35;5.55;;;40.40;24.90;;;;;;5051918;28;20525;-58
2022/07/26 10:05:36;;;;;;;28.42;8.32;;;40.60;24.20;;;;;;5052615;28;20207;-58
2022/07/26 10:08:02;;;;;;;13.75;7.28;;;39.90;25.60;;;;;;5052646;28;20041;-58
2022/07/26 10:10:50;;;;;;;11.20;5.95;;;40.30;26.00;;;;;;5052612;28;20112;-58
2022/07/26 10:13:16;;;;;;;13.30;6.00;;;40.80;24.40;;;;;;5053398;28;20037;-58
2022/07/26 10:15:46;;;;;;;14.82;7.18;;;40.90;24.80;;;;;;5053524;28;20056;-58
2022/07/26 10:18:37;;;;;;;9.18;4.93;;;41.00;24.20;;;;;;5052233;28;20386;-58
2022/07/26 10:21:24;;;;;;;14.63;6.53;;;40.20;24.70;;;;;;5055169;28;20025;-58
2022/07/26 10:23:55;;;;;;;27.00;7.88;;;40.40;24.20;;;;;;5050596;28;20276;-58
2022/07/26 10:26:30;;;;;;;7.00;5.18;;;40.90;23.80;;;;;;5050829;28;20037;-58
2022/07/26 10:29:15;;;;;;;12.80;6.45;;;41.00;24.00;;;;;;5047295;28;20029;-58
2022/07/26 10:31:46;;;;;;;16.58;6.10;;;41.00;23.70;;;;;;5054715;28;20133;-58
2022/07/26 10:34:31;;;;;;;8.07;5.35;;;40.90;24.40;;;;;;5047821;28;20029;-58
2022/07/26 10:36:59;;;;;;;21.52;6.88;;;40.70;24.90;;;;;;5047310;28;20036;-58
2022/07/26 10:39:27;;;;;;;19.38;6.22;;;40.00;24.30;;;;;;5043657;28;20025;-58
2022/07/26 10:42:16;;;;;;;13.93;6.65;;;40.00;25.40;;;;;;5049722;28;20847;-58
2022/07/26 10:44:45;;;;;;;16.33;6.93;;;38.60;25.90;;;;;;5049678;28;20028;-58
2022/07/26 10:47:17;;;;;;;28.58;8.85;;;39.20;27.20;;;;;;5047379;28;20061;-58
2022/07/26 10:49:58;;;;;;;8.20;4.93;;;39.80;25.90;;;;;;5047295;28;20044;-58
2022/07/26 10:52:32;;;;;;;25.08;5.30;;;39.80;25.80;;;;;;5051495;28;20025;-58
2022/07/26 10:55:03;;;;;;;12.95;5.68;;;40.30;25.20;;;;;;5052337;28;20021;-58
2022/07/26 10:57:40;;;;;;;13.25;6.47;;;40.50;25.00;;;;;;5053644;28;20021;-56
2022/07/26 11:00:13;;;;;;;8.55;4.47;;;39.80;25.40;;;;;;5048370;28;20029;-56
2022/07/26 11:02:42;;;;;;;46.47;8.75;;;39.40;25.50;;;;;;5048484;28;20375;-56
2022/07/26 11:05:14;;;;;;;10.77;5.72;;;39.00;24.80;;;;;;5050055;28;20036;-55
2022/07/26 11:07:58;;;;;;;7.60;4.07;;;39.60;25.70;;;;;;5050001;28;20223;-55
2022/07/26 11:10:36;;;;;;;15.30;5.30;;;39.10;25.50;;;;;;5050088;28;20025;-56
2022/07/26 11:13:14;;;;;;;18.63;8.18;;;39.20;25.80;;;;;;5054852;28;20467;-56
2022/07/26 11:15:45;;;;;;;15.15;5.82;;;39.50;25.00;;;;;;5034192;28;20065;-56
2022/07/26 11:18:15;;;;;;;14.13;6.38;;;40.10;25.50;;;;;;5048139;28;20039;-56
2022/07/26 11:20:42;;;;;;;18.20;5.90;;;40.60;25.20;;;;;;5053105;28;21011;-56
2022/07/26 11:23:29;;;;;;;17.83;6.43;;;40.10;24.60;;;;;;5052164;28;20025;-56
2022/07/26 11:26:19;;;;;;;21.52;6.53;;;40.00;24.70;;;;;;5053526;28;20021;-56
2022/07/26 11:29:14;;;;;;;9.63;5.05;;;39.90;24.30;;;;;;5048066;28;20577;-55
2022/07/26 11:31:41;;;;;;;13.45;5.38;;;39.50;25.00;;;;;;5034542;28;20045;-56
2022/07/26 11:34:14;;;;;;;13.77;6.18;;;39.50;24.80;;;;;;5051617;28;20470;-56
2022/07/26 11:36:43;;;;;;;7.53;5.10;;;38.90;25.30;;;;;;5050935;28;20105;-56
2022/07/26 11:39:14;;;;;;;10.15;5.03;;;39.10;24.70;;;;;;5047813;28;20455;-56
2022/07/26 11:41:41;;;;;;;24.35;7.38;;;38.80;25.20;;;;;;5051096;28;20490;-55
2022/07/26 11:44:18;;;;;;;12.38;5.97;;;39.30;25.50;;;;;;5052398;28;20061;-55
2022/07/26 11:46:47;;;;;;;9.77;4.85;;;39.80;25.30;;;;;;5048568;28;20041;-56
2022/07/26 11:49:21;;;;;;;9.68;5.70;;;39.10;24.60;;;;;;5047704;28;20021;-56
2022/07/26 11:51:58;;;;;;;11.10;4.70;;;39.20;24.70;;;;;;5051281;28;20029;-56
2022/07/26 11:54:29;;;;;;;7.07;4.30;;;39.70;24.10;;;;;;5048295;28;20474;-56
2022/07/26 11:56:58;;;;;;;11.32;5.20;;;38.30;24.90;;;;;;5052730;28;20021;-58
2022/07/26 11:59:28;;;;;;;15.32;5.25;;;38.30;25.30;;;;;;5050376;28;20371;-58
2022/07/26 12:01:57;;;;;;;15.40;6.03;;;39.30;25.10;;;;;;5052409;28;20082;-58
2022/07/26 12:04:26;;;;;;;8.65;4.53;;;39.20;24.30;;;;;;5061199;28;20068;-56
2022/07/26 12:06:54;;;;;;;7.90;4.32;;;40.20;23.80;;;;;;5054143;28;20098;-56
2022/07/26 12:09:39;;;;;;;12.45;5.47;;;40.10;23.20;;;;;;5049948;28;20058;-56
2022/07/26 12:12:08;;;;;;;6.40;4.05;;;40.00;24.80;;;;;;5049996;28;20021;-56
2022/07/26 12:14:37;;;;;;;5.30;4.70;;;40.30;23.40;;;;;;5034976;28;20036;-56
2022/07/26 12:17:16;;;;;;;9.13;4.20;;;38.30;23.60;;;;;;5046069;28;20025;-56
2022/07/26 12:19:43;;;;;;;54.35;10.70;;;39.20;24.50;;;;;;5047732;28;20029;-56
2022/07/26 12:22:26;;;;;;;13.02;5.20;;;39.60;23.40;;;;;;5053121;28;20040;-56
2022/07/26 12:24:56;;;;;;;7.10;3.60;;;40.30;23.30;;;;;;5042008;28;20527;-55
2022/07/26 12:27:26;;;;;;;;;;;40.00;23.40;;;;;;5041054;28;20037;-56
2022/07/26 12:29:54;;;;;;;15.93;5.38;;;39.20;23.70;;;;;;5051930;28;19916;-56
2022/07/26 12:32:23;;;;;;;9.05;5.50;;;39.60;23.70;;;;;;5052852;28;20470;-56
2022/07/26 12:35:10;;;;;;;8.65;4.50;;;39.80;23.20;;;;;;5041536;28;20028;-56
2022/07/26 12:37:56;;;;;;;11.48;5.85;;;40.10;23.80;;;;;;5044996;28;20029;-56
2022/07/26 12:40:27;;;;;;;11.48;4.50;;;40.10;23.00;;;;;;5042899;28;20044;-56
2022/07/26 12:42:56;;;;;;;11.13;4.65;;;39.90;23.60;;;;;;5045205;28;20064;-56
2022/07/26 12:45:29;;;;;;;;;;;40.40;23.10;;;;;;5035074;28;20061;-56
2022/07/26 12:47:58;;;;;;;20.13;6.32;;;40.40;23.20;;;;;;5034423;28;19913;-56